Portada
METAR-TAF:

METAR-TAF

Aeroports :

Recife, Pernambuco, Brasil

latitud: 08-08S, longitud: 034-55W, altitud: 19 m

Observació

L'informe es va fer fa 55 minuts, a les 08:00 UTC
Vent 6 kt del Est/Sud-Est, variant entre Est/Nord-Est i Sud-Est
Temperatura 26°C
Humitat 74%
Pressió 1014 hPa
Visibilitat 10 km o més
Escasses núvols a una alçada de 2500 ft
Cel ennuvolat a una alçada de 7000 ft

METAR: SBRF 120800Z 11006KT 060V140 9999 FEW025 BKN070 26/21 Q1014

Hora: 05:55 (08:55 UTC)

Pronòstic

L'informe es va fer fa 5 hores i 55 minuts, a les 03:00 UTC
Pronòstic vàlid del 12 a les 06 UTC al 13 a les 06 UTC
Vent 10 kt del Sud/Sud-Est
Visibilitat: 4000 m
Cel ennuvolat a una alçada de 1000 ft
Cel ennuvolat a una alçada de 2000 ft
pluja
Evolucionant progressivament
l' 12 a les 14 UTC al 12 a les 16 UTC
Visibilitat 10 km o més
Núvols disperses a una alçada de 2300 ft

TAF: SBRF 120300Z 1206/1306 15010KT 4000 RA BKN010 BKN020 TN23/1206Z TX29/1215Z BECMG 1214/1216 9999 SCT023 RMK PEG

Observacions i pronòstics meteorològics de més de 4000 aeroports (METAR i TAF).

Les estacions disponibles són els punts grocs i vermells al mapa.

Posi el ratolí al punt desitjat per veure el nom de l'estació.

Feu clic per veure les observacions i els pronòstics meteorològics.

Per canviar el mapa: feu clic els botons verds amb una creu de color negre per apropar; al botó verd amb un guió per allunyar la imatge; o en les fletxes verdes per a mapes adjacents.


METAR-TAF: